sensor_id;sensor_type;location;lat;lon;timestamp;P1;durP1;ratioP1;P2;durP2;ratioP2
44558;SDS011;30270;40.238;18.256;2023-01-01T00:00:41;26.30;;;18.67;;
44558;SDS011;30270;40.238;18.256;2023-01-01T00:03:09;33.53;;;20.65;;
44558;SDS011;30270;40.238;18.256;2023-01-01T00:05:37;25.95;;;19.67;;
44558;SDS011;30270;40.238;18.256;2023-01-01T00:08:05;29.77;;;20.33;;
44558;SDS011;30270;40.238;18.256;2023-01-01T00:10:33;27.65;;;20.38;;
44558;SDS011;30270;40.238;18.256;2023-01-01T00:13:00;30.25;;;21.63;;
44558;SDS011;30270;40.238;18.256;2023-01-01T00:15:28;26.77;;;20.85;;
44558;SDS011;30270;40.238;18.256;2023-01-01T00:17:55;25.52;;;19.08;;
44558;SDS011;30270;40.238;18.256;2023-01-01T00:20:23;34.78;;;21.33;;
44558;SDS011;30270;40.238;18.256;2023-01-01T00:22:53;32.13;;;22.27;;
44558;SDS011;30270;40.238;18.256;2023-01-01T00:25:21;37.17;;;24.92;;
44558;SDS011;30270;40.238;18.256;2023-01-01T00:27:49;47.88;;;27.15;;
44558;SDS011;30270;40.238;18.256;2023-01-01T00:30:17;47.20;;;31.35;;
44558;SDS011;30270;40.238;18.256;2023-01-01T00:32:45;44.17;;;29.88;;
44558;SDS011;30270;40.238;18.256;2023-01-01T00:35:12;43.55;;;31.30;;
44558;SDS011;30270;40.238;18.256;2023-01-01T00:37:40;51.90;;;33.67;;
44558;SDS011;30270;40.238;18.256;2023-01-01T00:40:12;46.92;;;31.58;;
44558;SDS011;30270;40.238;18.256;2023-01-01T00:42:39;44.08;;;28.85;;
44558;SDS011;30270;40.238;18.256;2023-01-01T00:45:07;47.13;;;31.05;;
44558;SDS011;30270;40.238;18.256;2023-01-01T00:47:37;49.15;;;29.45;;
44558;SDS011;30270;40.238;18.256;2023-01-01T00:50:04;44.47;;;29.33;;
44558;SDS011;30270;40.238;18.256;2023-01-01T00:52:32;42.47;;;29.60;;
44558;SDS011;30270;40.238;18.256;2023-01-01T00:54:59;43.60;;;30.00;;
44558;SDS011;30270;40.238;18.256;2023-01-01T00:57:27;46.33;;;32.33;;
44558;SDS011;30270;40.238;18.256;2023-01-01T00:59:54;43.83;;;32.05;;
44558;SDS011;30270;40.238;18.256;2023-01-01T01:02:22;43.45;;;31.67;;
44558;SDS011;30270;40.238;18.256;2023-01-01T01:04:50;49.58;;;33.38;;
44558;SDS011;30270;40.238;18.256;2023-01-01T01:07:17;48.83;;;33.47;;
44558;SDS011;30270;40.238;18.256;2023-01-01T01:09:45;46.70;;;32.55;;
44558;SDS011;30270;40.238;18.256;2023-01-01T01:12:12;44.03;;;31.42;;
44558;SDS011;30270;40.238;18.256;2023-01-01T01:14:40;42.00;;;30.10;;
44558;SDS011;30270;40.238;18.256;2023-01-01T01:17:07;49.60;;;30.02;;
44558;SDS011;30270;40.238;18.256;2023-01-01T01:19:35;41.05;;;28.95;;
44558;SDS011;30270;40.238;18.256;2023-01-01T01:22:03;41.38;;;27.33;;
44558;SDS011;30270;40.238;18.256;2023-01-01T01:24:30;36.88;;;28.13;;
44558;SDS011;30270;40.238;18.256;2023-01-01T01:26:58;41.42;;;26.80;;
44558;SDS011;30270;40.238;18.256;2023-01-01T01:29:25;36.53;;;25.50;;
44558;SDS011;30270;40.238;18.256;2023-01-01T01:31:53;40.60;;;25.65;;
44558;SDS011;30270;40.238;18.256;2023-01-01T01:34:20;40.42;;;25.65;;
44558;SDS011;30270;40.238;18.256;2023-01-01T01:36:53;33.47;;;26.20;;
44558;SDS011;30270;40.238;18.256;2023-01-01T01:39:20;35.17;;;23.20;;
44558;SDS011;30270;40.238;18.256;2023-01-01T01:41:48;34.00;;;23.98;;
44558;SDS011;30270;40.238;18.256;2023-01-01T01:47:50;31.67;;;21.60;;
44558;SDS011;30270;40.238;18.256;2023-01-01T01:55:37;35.80;;;21.85;;
44558;SDS011;30270;40.238;18.256;2023-01-01T01:58:10;32.33;;;20.02;;
44558;SDS011;30270;40.238;18.256;2023-01-01T02:00:39;27.08;;;19.95;;
44558;SDS011;30270;40.238;18.256;2023-01-01T02:03:08;24.95;;;16.98;;
44558;SDS011;30270;40.238;18.256;2023-01-01T02:05:48;21.70;;;15.70;;
44558;SDS011;30270;40.238;18.256;2023-01-01T02:08:18;28.45;;;17.48;;
44558;SDS011;30270;40.238;18.256;2023-01-01T02:10:47;26.83;;;17.50;;
44558;SDS011;30270;40.238;18.256;2023-01-01T02:13:14;26.70;;;17.33;;
44558;SDS011;30270;40.238;18.256;2023-01-01T02:18:24;27.50;;;16.58;;
44558;SDS011;30270;40.238;18.256;2023-01-01T02:21:01;24.13;;;16.63;;
44558;SDS011;30270;40.238;18.256;2023-01-01T02:23:41;26.48;;;17.98;;
44558;SDS011;30270;40.238;18.256;2023-01-01T02:31:48;23.38;;;15.90;;
44558;SDS011;30270;40.238;18.256;2023-01-01T02:36:53;23.73;;;16.25;;
44558;SDS011;30270;40.238;18.256;2023-01-01T02:39:24;29.20;;;18.83;;
44558;SDS011;30270;40.238;18.256;2023-01-01T02:41:57;27.70;;;19.17;;
44558;SDS011;30270;40.238;18.256;2023-01-01T02:44:27;26.45;;;17.05;;
44558;SDS011;30270;40.238;18.256;2023-01-01T02:47:04;28.90;;;19.10;;
44558;SDS011;30270;40.238;18.256;2023-01-01T02:49:37;30.58;;;19.83;;
44558;SDS011;30270;40.238;18.256;2023-01-01T02:52:15;32.42;;;20.50;;
44558;SDS011;30270;40.238;18.256;2023-01-01T02:55:06;33.33;;;22.67;;
44558;SDS011;30270;40.238;18.256;2023-01-01T02:58:03;31.02;;;20.58;;
44558;SDS011;30270;40.238;18.256;2023-01-01T03:00:53;27.77;;;19.33;;
44558;SDS011;30270;40.238;18.256;2023-01-01T03:03:39;25.50;;;18.65;;
44558;SDS011;30270;40.238;18.256;2023-01-01T03:06:31;31.55;;;19.63;;
44558;SDS011;30270;40.238;18.256;2023-01-01T03:17:49;31.77;;;20.88;;
44558;SDS011;30270;40.238;18.256;2023-01-01T03:20:20;35.00;;;21.75;;
44558;SDS011;30270;40.238;18.256;2023-01-01T03:22:51;32.05;;;21.30;;
44558;SDS011;30270;40.238;18.256;2023-01-01T03:25:22;44.47;;;21.52;;
44558;SDS011;30270;40.238;18.256;2023-01-01T03:28:03;30.02;;;19.73;;
44558;SDS011;30270;40.238;18.256;2023-01-01T03:30:36;32.45;;;19.70;;
44558;SDS011;30270;40.238;18.256;2023-01-01T03:33:07;27.92;;;18.95;;
44558;SDS011;30270;40.238;18.256;2023-01-01T03:35:45;26.98;;;18.40;;
44558;SDS011;30270;40.238;18.256;2023-01-01T03:41:05;27.95;;;18.15;;
44558;SDS011;30270;40.238;18.256;2023-01-01T03:46:32;48.28;;;20.52;;
44558;SDS011;30270;40.238;18.256;2023-01-01T03:49:02;33.47;;;20.30;;
44558;SDS011;30270;40.238;18.256;2023-01-01T03:54:01;33.75;;;20.48;;
44558;SDS011;30270;40.238;18.256;2023-01-01T03:56:58;26.42;;;18.70;;
44558;SDS011;30270;40.238;18.256;2023-01-01T04:02:20;28.50;;;20.25;;
44558;SDS011;30270;40.238;18.256;2023-01-01T04:04:52;26.52;;;16.35;;
44558;SDS011;30270;40.238;18.256;2023-01-01T04:07:19;24.20;;;17.55;;
44558;SDS011;30270;40.238;18.256;2023-01-01T04:09:48;31.70;;;17.02;;
44558;SDS011;30270;40.238;18.256;2023-01-01T04:12:17;26.55;;;16.00;;
44558;SDS011;30270;40.238;18.256;2023-01-01T04:14:46;26.85;;;17.67;;
44558;SDS011;30270;40.238;18.256;2023-01-01T04:17:14;50.90;;;17.95;;
44558;SDS011;30270;40.238;18.256;2023-01-01T04:19:41;21.58;;;14.52;;
44558;SDS011;30270;40.238;18.256;2023-01-01T04:22:10;24.98;;;16.98;;
44558;SDS011;30270;40.238;18.256;2023-01-01T04:24:37;22.52;;;16.85;;
44558;SDS011;30270;40.238;18.256;2023-01-01T04:27:05;29.58;;;17.60;;
44558;SDS011;30270;40.238;18.256;2023-01-01T04:29:32;25.30;;;16.20;;
44558;SDS011;30270;40.238;18.256;2023-01-01T04:32:00;27.58;;;16.88;;
44558;SDS011;30270;40.238;18.256;2023-01-01T04:34:27;25.25;;;16.23;;
44558;SDS011;30270;40.238;18.256;2023-01-01T04:36:54;29.42;;;17.55;;
44558;SDS011;30270;40.238;18.256;2023-01-01T04:39:22;22.85;;;14.88;;
44558;SDS011;30270;40.238;18.256;2023-01-01T04:41:49;24.92;;;17.10;;
44558;SDS011;30270;40.238;18.256;2023-01-01T04:44:17;23.00;;;16.13;;
44558;SDS011;30270;40.238;18.256;2023-01-01T04:46:44;25.75;;;17.70;;
44558;SDS011;30270;40.238;18.256;2023-01-01T04:49:12;26.17;;;16.08;;
44558;SDS011;30270;40.238;18.256;2023-01-01T04:51:39;25.67;;;17.60;;
44558;SDS011;30270;40.238;18.256;2023-01-01T04:54:07;23.80;;;15.25;;
44558;SDS011;30270;40.238;18.256;2023-01-01T04:56:34;25.73;;;16.60;;
44558;SDS011;30270;40.238;18.256;2023-01-01T04:59:02;27.30;;;17.42;;
44558;SDS011;30270;40.238;18.256;2023-01-01T05:01:30;24.13;;;15.88;;
44558;SDS011;30270;40.238;18.256;2023-01-01T05:03:57;24.10;;;16.67;;
44558;SDS011;30270;40.238;18.256;2023-01-01T05:06:25;25.23;;;15.30;;
44558;SDS011;30270;40.238;18.256;2023-01-01T05:08:53;25.90;;;17.50;;
44558;SDS011;30270;40.238;18.256;2023-01-01T05:11:23;23.95;;;14.52;;
44558;SDS011;30270;40.238;18.256;2023-01-01T05:13:53;22.65;;;14.85;;
44558;SDS011;30270;40.238;18.256;2023-01-01T05:16:22;46.67;;;18.05;;
44558;SDS011;30270;40.238;18.256;2023-01-01T05:18:51;31.65;;;15.32;;
44558;SDS011;30270;40.238;18.256;2023-01-01T05:21:23;23.50;;;14.35;;
44558;SDS011;30270;40.238;18.256;2023-01-01T05:24:07;39.92;;;16.45;;
44558;SDS011;30270;40.238;18.256;2023-01-01T05:26:37;30.23;;;17.45;;
44558;SDS011;30270;40.238;18.256;2023-01-01T05:29:09;30.00;;;18.80;;
44558;SDS011;30270;40.238;18.256;2023-01-01T05:31:41;32.10;;;20.23;;
44558;SDS011;30270;40.238;18.256;2023-01-01T05:34:09;29.42;;;21.20;;
44558;SDS011;30270;40.238;18.256;2023-01-01T05:36:36;27.85;;;17.27;;
44558;SDS011;30270;40.238;18.256;2023-01-01T05:39:08;29.92;;;17.55;;
44558;SDS011;30270;40.238;18.256;2023-01-01T05:41:38;32.13;;;17.77;;
44558;SDS011;30270;40.238;18.256;2023-01-01T05:44:07;28.05;;;17.58;;
44558;SDS011;30270;40.238;18.256;2023-01-01T05:46:35;26.77;;;17.67;;
44558;SDS011;30270;40.238;18.256;2023-01-01T05:49:03;33.80;;;18.13;;
44558;SDS011;30270;40.238;18.256;2023-01-01T05:51:31;35.17;;;18.85;;
44558;SDS011;30270;40.238;18.256;2023-01-01T05:53:58;25.67;;;17.77;;
44558;SDS011;30270;40.238;18.256;2023-01-01T05:56:25;30.42;;;17.75;;
44558;SDS011;30270;40.238;18.256;2023-01-01T05:58:54;27.55;;;17.92;;
44558;SDS011;30270;40.238;18.256;2023-01-01T06:01:23;22.88;;;15.30;;
44558;SDS011;30270;40.238;18.256;2023-01-01T06:03:52;26.50;;;17.83;;
44558;SDS011;30270;40.238;18.256;2023-01-01T06:06:22;29.23;;;17.92;;
44558;SDS011;30270;40.238;18.256;2023-01-01T06:08:55;24.90;;;15.57;;
44558;SDS011;30270;40.238;18.256;2023-01-01T06:11:24;28.60;;;15.70;;
44558;SDS011;30270;40.238;18.256;2023-01-01T06:13:54;30.40;;;17.00;;
44558;SDS011;30270;40.238;18.256;2023-01-01T06:16:24;24.95;;;16.95;;
44558;SDS011;30270;40.238;18.256;2023-01-01T06:18:53;27.75;;;17.92;;
44558;SDS011;30270;40.238;18.256;2023-01-01T06:21:23;26.35;;;17.15;;
44558;SDS011;30270;40.238;18.256;2023-01-01T06:23:54;29.10;;;16.48;;
44558;SDS011;30270;40.238;18.256;2023-01-01T06:26:24;20.48;;;15.35;;
44558;SDS011;30270;40.238;18.256;2023-01-01T06:28:54;24.63;;;15.27;;
44558;SDS011;30270;40.238;18.256;2023-01-01T06:31:22;24.67;;;14.55;;
44558;SDS011;30270;40.238;18.256;2023-01-01T06:33:50;24.55;;;15.80;;
44558;SDS011;30270;40.238;18.256;2023-01-01T06:36:19;30.75;;;16.30;;
44558;SDS011;30270;40.238;18.256;2023-01-01T06:38:49;26.50;;;16.02;;
44558;SDS011;30270;40.238;18.256;2023-01-01T06:41:22;28.17;;;15.50;;
44558;SDS011;30270;40.238;18.256;2023-01-01T06:43:51;24.98;;;16.02;;
44558;SDS011;30270;40.238;18.256;2023-01-01T06:46:24;25.73;;;16.40;;
44558;SDS011;30270;40.238;18.256;2023-01-01T06:49:01;24.90;;;14.57;;
44558;SDS011;30270;40.238;18.256;2023-01-01T06:51:32;21.85;;;15.07;;
44558;SDS011;30270;40.238;18.256;2023-01-01T06:54:02;25.60;;;16.70;;
44558;SDS011;30270;40.238;18.256;2023-01-01T06:56:30;24.95;;;15.23;;
44558;SDS011;30270;40.238;18.256;2023-01-01T06:58:59;24.90;;;15.00;;
44558;SDS011;30270;40.238;18.256;2023-01-01T07:01:27;32.10;;;16.10;;
44558;SDS011;30270;40.238;18.256;2023-01-01T07:04:00;19.98;;;13.10;;
44558;SDS011;30270;40.238;18.256;2023-01-01T07:06:30;23.02;;;15.52;;
44558;SDS011;30270;40.238;18.256;2023-01-01T07:08:58;19.63;;;14.13;;
44558;SDS011;30270;40.238;18.256;2023-01-01T07:11:26;21.92;;;13.25;;
44558;SDS011;30270;40.238;18.256;2023-01-01T07:13:54;22.23;;;15.07;;
44558;SDS011;30270;40.238;18.256;2023-01-01T07:16:22;24.08;;;13.82;;
44558;SDS011;30270;40.238;18.256;2023-01-01T07:18:50;17.75;;;13.27;;
44558;SDS011;30270;40.238;18.256;2023-01-01T07:21:28;18.00;;;12.85;;
44558;SDS011;30270;40.238;18.256;2023-01-01T07:23:59;22.23;;;14.43;;
44558;SDS011;30270;40.238;18.256;2023-01-01T07:26:28;20.05;;;12.75;;
44558;SDS011;30270;40.238;18.256;2023-01-01T07:28:57;18.88;;;12.73;;
44558;SDS011;30270;40.238;18.256;2023-01-01T07:31:31;19.70;;;12.10;;
44558;SDS011;30270;40.238;18.256;2023-01-01T07:33:59;16.75;;;12.02;;
44558;SDS011;30270;40.238;18.256;2023-01-01T07:36:27;17.98;;;12.52;;
44558;SDS011;30270;40.238;18.256;2023-01-01T07:38:54;18.70;;;11.70;;
44558;SDS011;30270;40.238;18.256;2023-01-01T07:41:22;18.55;;;12.63;;
44558;SDS011;30270;40.238;18.256;2023-01-01T07:43:50;18.10;;;12.15;;
44558;SDS011;30270;40.238;18.256;2023-01-01T07:46:18;15.25;;;10.45;;
44558;SDS011;30270;40.238;18.256;2023-01-01T07:48:45;16.83;;;12.45;;
44558;SDS011;30270;40.238;18.256;2023-01-01T07:51:13;14.88;;;10.75;;
44558;SDS011;30270;40.238;18.256;2023-01-01T07:53:41;17.10;;;11.27;;
44558;SDS011;30270;40.238;18.256;2023-01-01T07:56:08;15.38;;;10.80;;
44558;SDS011;30270;40.238;18.256;2023-01-01T07:58:39;15.70;;;9.85;;
44558;SDS011;30270;40.238;18.256;2023-01-01T08:01:11;14.10;;;10.82;;
44558;SDS011;30270;40.238;18.256;2023-01-01T08:03:40;16.42;;;11.15;;
44558;SDS011;30270;40.238;18.256;2023-01-01T08:06:09;19.65;;;10.73;;
44558;SDS011;30270;40.238;18.256;2023-01-01T08:08:38;17.95;;;10.98;;
44558;SDS011;30270;40.238;18.256;2023-01-01T08:11:06;15.00;;;10.73;;
44558;SDS011;30270;40.238;18.256;2023-01-01T08:13:34;13.48;;;9.98;;
44558;SDS011;30270;40.238;18.256;2023-01-01T08:16:04;19.95;;;12.40;;
44558;SDS011;30270;40.238;18.256;2023-01-01T08:18:31;14.82;;;10.20;;
44558;SDS011;30270;40.238;18.256;2023-01-01T08:20:59;14.57;;;10.07;;
44558;SDS011;30270;40.238;18.256;2023-01-01T08:23:27;14.23;;;9.60;;
44558;SDS011;30270;40.238;18.256;2023-01-01T08:25:58;27.85;;;9.65;;
44558;SDS011;30270;40.238;18.256;2023-01-01T08:28:28;16.75;;;10.65;;
44558;SDS011;30270;40.238;18.256;2023-01-01T08:30:56;15.63;;;9.75;;
44558;SDS011;30270;40.238;18.256;2023-01-01T08:33:27;15.88;;;10.13;;
44558;SDS011;30270;40.238;18.256;2023-01-01T08:35:55;13.50;;;9.45;;
44558;SDS011;30270;40.238;18.256;2023-01-01T08:38:22;18.98;;;9.45;;
44558;SDS011;30270;40.238;18.256;2023-01-01T08:40:50;16.50;;;10.30;;
44558;SDS011;30270;40.238;18.256;2023-01-01T08:43:18;18.10;;;9.90;;
44558;SDS011;30270;40.238;18.256;2023-01-01T08:45:45;13.80;;;9.40;;
44558;SDS011;30270;40.238;18.256;2023-01-01T08:48:13;16.40;;;10.07;;
44558;SDS011;30270;40.238;18.256;2023-01-01T08:50:41;14.48;;;9.40;;
44558;SDS011;30270;40.238;18.256;2023-01-01T08:53:08;14.88;;;10.50;;
44558;SDS011;30270;40.238;18.256;2023-01-01T08:55:36;16.45;;;10.00;;
44558;SDS011;30270;40.238;18.256;2023-01-01T08:58:06;15.02;;;9.80;;
44558;SDS011;30270;40.238;18.256;2023-01-01T09:00:34;15.57;;;10.75;;
44558;SDS011;30270;40.238;18.256;2023-01-01T09:03:02;14.20;;;10.85;;
44558;SDS011;30270;40.238;18.256;2023-01-01T09:05:29;16.00;;;9.93;;
44558;SDS011;30270;40.238;18.256;2023-01-01T09:07:57;14.95;;;10.00;;
44558;SDS011;30270;40.238;18.256;2023-01-01T09:10:24;17.23;;;11.98;;
44558;SDS011;30270;40.238;18.256;2023-01-01T09:12:52;15.75;;;10.93;;
44558;SDS011;30270;40.238;18.256;2023-01-01T09:15:19;17.83;;;13.18;;
44558;SDS011;30270;40.238;18.256;2023-01-01T09:17:50;15.63;;;10.88;;
44558;SDS011;30270;40.238;18.256;2023-01-01T09:20:18;19.33;;;11.43;;
44558;SDS011;30270;40.238;18.256;2023-01-01T09:22:45;14.00;;;9.93;;
44558;SDS011;30270;40.238;18.256;2023-01-01T09:25:14;14.57;;;9.85;;
44558;SDS011;30270;40.238;18.256;2023-01-01T09:27:42;16.20;;;11.52;;
44558;SDS011;30270;40.238;18.256;2023-01-01T09:30:11;12.77;;;9.55;;
44558;SDS011;30270;40.238;18.256;2023-01-01T09:32:39;11.60;;;7.97;;
44558;SDS011;30270;40.238;18.256;2023-01-01T09:35:08;12.50;;;8.27;;
44558;SDS011;30270;40.238;18.256;2023-01-01T09:37:36;10.45;;;7.43;;
44558;SDS011;30270;40.238;18.256;2023-01-01T09:40:03;9.20;;;6.95;;
44558;SDS011;30270;40.238;18.256;2023-01-01T09:42:44;8.73;;;6.28;;
44558;SDS011;30270;40.238;18.256;2023-01-01T09:45:22;9.50;;;6.65;;
44558;SDS011;30270;40.238;18.256;2023-01-01T09:47:58;13.38;;;7.80;;
44558;SDS011;30270;40.238;18.256;2023-01-01T09:50:37;10.82;;;7.47;;
44558;SDS011;30270;40.238;18.256;2023-01-01T09:53:31;11.38;;;7.15;;
44558;SDS011;30270;40.238;18.256;2023-01-01T09:56:00;8.23;;;5.85;;
44558;SDS011;30270;40.238;18.256;2023-01-01T09:58:31;10.93;;;7.85;;
44558;SDS011;30270;40.238;18.256;2023-01-01T10:09:59;8.48;;;5.72;;
44558;SDS011;30270;40.238;18.256;2023-01-01T10:15:35;9.32;;;5.95;;
44558;SDS011;30270;40.238;18.256;2023-01-01T10:18:08;9.45;;;6.32;;
44558;SDS011;30270;40.238;18.256;2023-01-01T10:20:53;7.88;;;5.70;;
44558;SDS011;30270;40.238;18.256;2023-01-01T10:23:46;7.57;;;5.63;;
44558;SDS011;30270;40.238;18.256;2023-01-01T10:26:19;7.60;;;4.93;;
44558;SDS011;30270;40.238;18.256;2023-01-01T10:33:58;8.25;;;5.15;;
44558;SDS011;30270;40.238;18.256;2023-01-01T10:36:38;8.77;;;6.20;;
44558;SDS011;30270;40.238;18.256;2023-01-01T10:39:05;12.63;;;6.18;;
44558;SDS011;30270;40.238;18.256;2023-01-01T10:41:35;8.68;;;5.30;;
44558;SDS011;30270;40.238;18.256;2023-01-01T10:44:02;7.75;;;5.28;;
44558;SDS011;30270;40.238;18.256;2023-01-01T10:46:31;8.63;;;6.05;;
44558;SDS011;30270;40.238;18.256;2023-01-01T10:49:07;12.10;;;6.85;;
44558;SDS011;30270;40.238;18.256;2023-01-01T10:51:45;8.93;;;5.15;;
44558;SDS011;30270;40.238;18.256;2023-01-01T10:56:58;6.53;;;4.30;;
44558;SDS011;30270;40.238;18.256;2023-01-01T10:59:46;6.43;;;3.72;;
44558;SDS011;30270;40.238;18.256;2023-01-01T11:02:21;8.85;;;4.53;;
44558;SDS011;30270;40.238;18.256;2023-01-01T11:04:51;7.47;;;5.38;;
44558;SDS011;30270;40.238;18.256;2023-01-01T11:07:42;9.38;;;4.30;;
44558;SDS011;30270;40.238;18.256;2023-01-01T11:10:14;5.47;;;3.85;;
44558;SDS011;30270;40.238;18.256;2023-01-01T11:12:45;6.63;;;5.22;;
44558;SDS011;30270;40.238;18.256;2023-01-01T11:15:34;5.93;;;3.65;;
44558;SDS011;30270;40.238;18.256;2023-01-01T11:18:14;7.20;;;4.50;;
44558;SDS011;30270;40.238;18.256;2023-01-01T11:20:50;8.55;;;5.65;;
44558;SDS011;30270;40.238;18.256;2023-01-01T11:23:26;7.05;;;5.28;;
44558;SDS011;30270;40.238;18.256;2023-01-01T11:26:02;8.13;;;4.90;;
44558;SDS011;30270;40.238;18.256;2023-01-01T11:28:34;6.32;;;4.13;;
44558;SDS011;30270;40.238;18.256;2023-01-01T11:33:33;9.25;;;5.45;;
44558;SDS011;30270;40.238;18.256;2023-01-01T11:36:22;9.05;;;5.85;;
44558;SDS011;30270;40.238;18.256;2023-01-01T11:41:51;4.70;;;3.70;;
44558;SDS011;30270;40.238;18.256;2023-01-01T11:44:24;6.03;;;3.58;;
44558;SDS011;30270;40.238;18.256;2023-01-01T11:46:56;7.55;;;5.60;;
44558;SDS011;30270;40.238;18.256;2023-01-01T11:49:24;6.50;;;4.60;;
44558;SDS011;30270;40.238;18.256;2023-01-01T11:51:54;6.72;;;3.90;;
44558;SDS011;30270;40.238;18.256;2023-01-01T11:54:32;7.47;;;4.53;;
44558;SDS011;30270;40.238;18.256;2023-01-01T11:57:06;5.18;;;3.97;;
44558;SDS011;30270;40.238;18.256;2023-01-01T11:59:46;5.45;;;3.72;;
44558;SDS011;30270;40.238;18.256;2023-01-01T12:04:58;6.97;;;4.20;;
44558;SDS011;30270;40.238;18.256;2023-01-01T12:07:42;5.90;;;3.88;;
44558;SDS011;30270;40.238;18.256;2023-01-01T12:10:19;5.40;;;3.53;;
44558;SDS011;30270;40.238;18.256;2023-01-01T12:13:06;5.57;;;4.18;;
44558;SDS011;30270;40.238;18.256;2023-01-01T12:21:12;7.28;;;3.60;;
44558;SDS011;30270;40.238;18.256;2023-01-01T12:23:45;6.05;;;4.55;;
44558;SDS011;30270;40.238;18.256;2023-01-01T12:32:01;9.40;;;6.70;;
44558;SDS011;30270;40.238;18.256;2023-01-01T12:43:00;7.55;;;4.90;;
44558;SDS011;30270;40.238;18.256;2023-01-01T12:59:47;12.52;;;5.28;;
44558;SDS011;30270;40.238;18.256;2023-01-01T13:02:18;9.02;;;4.47;;
44558;SDS011;30270;40.238;18.256;2023-01-01T13:04:51;6.85;;;4.18;;
44558;SDS011;30270;40.238;18.256;2023-01-01T13:07:27;5.80;;;3.70;;
44558;SDS011;30270;40.238;18.256;2023-01-01T13:12:53;8.20;;;5.60;;
44558;SDS011;30270;40.238;18.256;2023-01-01T13:18:27;5.75;;;3.67;;
44558;SDS011;30270;40.238;18.256;2023-01-01T13:21:01;8.20;;;4.20;;
44558;SDS011;30270;40.238;18.256;2023-01-01T13:45:28;5.38;;;3.75;;
44558;SDS011;30270;40.238;18.256;2023-01-01T13:48:28;6.10;;;3.70;;
44558;SDS011;30270;40.238;18.256;2023-01-01T13:56:53;7.32;;;5.07;;
44558;SDS011;30270;40.238;18.256;2023-01-01T13:59:47;19.25;;;7.00;;
44558;SDS011;30270;40.238;18.256;2023-01-01T14:05:14;7.85;;;6.00;;
44558;SDS011;30270;40.238;18.256;2023-01-01T14:08:04;6.53;;;4.77;;
44558;SDS011;30270;40.238;18.256;2023-01-01T14:10:34;6.63;;;4.22;;
44558;SDS011;30270;40.238;18.256;2023-01-01T14:15:38;6.35;;;4.00;;
44558;SDS011;30270;40.238;18.256;2023-01-01T14:18:18;8.25;;;3.55;;
44558;SDS011;30270;40.238;18.256;2023-01-01T14:20:48;5.80;;;4.18;;
44558;SDS011;30270;40.238;18.256;2023-01-01T14:23:19;5.20;;;3.42;;
44558;SDS011;30270;40.238;18.256;2023-01-01T14:25:49;9.38;;;5.30;;
44558;SDS011;30270;40.238;18.256;2023-01-01T14:28:28;6.20;;;4.38;;
44558;SDS011;30270;40.238;18.256;2023-01-01T14:31:00;7.20;;;4.05;;
44558;SDS011;30270;40.238;18.256;2023-01-01T14:36:05;7.05;;;5.82;;
44558;SDS011;30270;40.238;18.256;2023-01-01T14:38:43;10.30;;;6.68;;
44558;SDS011;30270;40.238;18.256;2023-01-01T14:43:58;8.47;;;4.53;;
44558;SDS011;30270;40.238;18.256;2023-01-01T14:46:34;6.85;;;4.30;;
44558;SDS011;30270;40.238;18.256;2023-01-01T14:49:07;8.27;;;6.20;;
44558;SDS011;30270;40.238;18.256;2023-01-01T14:51:37;8.43;;;6.00;;
44558;SDS011;30270;40.238;18.256;2023-01-01T14:54:20;9.25;;;5.93;;
44558;SDS011;30270;40.238;18.256;2023-01-01T14:56:50;6.50;;;4.78;;
44558;SDS011;30270;40.238;18.256;2023-01-01T15:01:59;7.65;;;6.50;;
44558;SDS011;30270;40.238;18.256;2023-01-01T15:04:28;16.30;;;6.72;;
44558;SDS011;30270;40.238;18.256;2023-01-01T15:06:59;10.70;;;7.93;;
44558;SDS011;30270;40.238;18.256;2023-01-01T15:09:27;10.48;;;7.03;;
44558;SDS011;30270;40.238;18.256;2023-01-01T15:11:58;10.10;;;6.45;;
44558;SDS011;30270;40.238;18.256;2023-01-01T15:17:09;12.55;;;7.45;;
44558;SDS011;30270;40.238;18.256;2023-01-01T15:19:39;11.25;;;7.13;;
44558;SDS011;30270;40.238;18.256;2023-01-01T15:24:52;9.40;;;7.55;;
44558;SDS011;30270;40.238;18.256;2023-01-01T15:27:21;16.98;;;9.75;;
44558;SDS011;30270;40.238;18.256;2023-01-01T15:29:53;13.25;;;10.65;;
44558;SDS011;30270;40.238;18.256;2023-01-01T15:32:24;14.18;;;9.93;;
44558;SDS011;30270;40.238;18.256;2023-01-01T15:34:55;14.77;;;10.30;;
44558;SDS011;30270;40.238;18.256;2023-01-01T15:40:03;11.73;;;10.30;;
44558;SDS011;30270;40.238;18.256;2023-01-01T15:47:52;14.27;;;10.82;;
44558;SDS011;30270;40.238;18.256;2023-01-01T15:52:55;13.82;;;11.25;;
44558;SDS011;30270;40.238;18.256;2023-01-01T15:55:56;15.80;;;12.18;;
44558;SDS011;30270;40.238;18.256;2023-01-01T16:01:01;14.03;;;9.63;;
44558;SDS011;30270;40.238;18.256;2023-01-01T16:03:31;13.50;;;9.15;;
44558;SDS011;30270;40.238;18.256;2023-01-01T16:06:01;12.23;;;8.68;;
44558;SDS011;30270;40.238;18.256;2023-01-01T16:08:29;11.70;;;7.47;;
44558;SDS011;30270;40.238;18.256;2023-01-01T16:10:56;10.70;;;8.70;;
44558;SDS011;30270;40.238;18.256;2023-01-01T16:13:24;15.90;;;10.15;;
44558;SDS011;30270;40.238;18.256;2023-01-01T16:18:23;15.98;;;13.85;;
44558;SDS011;30270;40.238;18.256;2023-01-01T16:20:59;21.92;;;17.40;;
44558;SDS011;30270;40.238;18.256;2023-01-01T16:23:28;24.90;;;18.98;;
44558;SDS011;30270;40.238;18.256;2023-01-01T16:25:56;24.85;;;19.45;;
44558;SDS011;30270;40.238;18.256;2023-01-01T16:28:24;24.52;;;19.52;;
44558;SDS011;30270;40.238;18.256;2023-01-01T16:30:52;23.23;;;17.90;;
44558;SDS011;30270;40.238;18.256;2023-01-01T16:33:19;28.27;;;18.80;;
44558;SDS011;30270;40.238;18.256;2023-01-01T16:35:49;33.97;;;21.15;;
44558;SDS011;30270;40.238;18.256;2023-01-01T16:38:17;33.15;;;21.27;;
44558;SDS011;30270;40.238;18.256;2023-01-01T16:40:44;27.77;;;21.15;;
44558;SDS011;30270;40.238;18.256;2023-01-01T16:43:15;21.95;;;17.70;;
44558;SDS011;30270;40.238;18.256;2023-01-01T16:45:44;24.85;;;18.33;;
44558;SDS011;30270;40.238;18.256;2023-01-01T16:48:12;23.42;;;19.17;;
44558;SDS011;30270;40.238;18.256;2023-01-01T16:50:39;23.02;;;18.58;;
44558;SDS011;30270;40.238;18.256;2023-01-01T16:53:07;25.70;;;18.08;;
44558;SDS011;30270;40.238;18.256;2023-01-01T16:55:34;23.23;;;16.92;;
44558;SDS011;30270;40.238;18.256;2023-01-01T16:58:02;30.02;;;21.45;;
44558;SDS011;30270;40.238;18.256;2023-01-01T17:00:47;46.55;;;26.60;;
44558;SDS011;30270;40.238;18.256;2023-01-01T17:03:14;35.53;;;24.70;;
44558;SDS011;30270;40.238;18.256;2023-01-01T17:05:42;31.80;;;24.08;;
44558;SDS011;30270;40.238;18.256;2023-01-01T17:08:10;33.00;;;24.00;;
44558;SDS011;30270;40.238;18.256;2023-01-01T17:10:38;32.83;;;24.45;;
44558;SDS011;30270;40.238;18.256;2023-01-01T17:13:05;30.88;;;23.70;;
44558;SDS011;30270;40.238;18.256;2023-01-01T17:15:33;26.80;;;20.13;;
44558;SDS011;30270;40.238;18.256;2023-01-01T17:18:01;27.98;;;18.48;;
44558;SDS011;30270;40.238;18.256;2023-01-01T17:20:29;25.70;;;17.25;;
44558;SDS011;30270;40.238;18.256;2023-01-01T17:22:56;25.60;;;17.83;;
44558;SDS011;30270;40.238;18.256;2023-01-01T17:25:24;25.83;;;18.50;;
44558;SDS011;30270;40.238;18.256;2023-01-01T17:27:52;25.67;;;19.33;;